Active alerts

Gallatin County, MT
  Details for Gallatin County, MT Winter Storm Warning
Gallatin County, MT
  Details for Gallatin County, MT Hydrologic Outlook

Thunder radar more information blitzortung!


Rain radar more information rain snow radar



Nearby METAR Reports

   
KNUQ - Mountain View, CA
Updated: Apr 13 2021 3:40 pm
NOT Current
  
  
   Wind: Calm
Wind: Calm
KNUQ 132240Z AUTO RMK AO2 PNO PWINO TSNO
KSFO - San Francisco, CA
Updated: Apr 20 2021 6:42 am
Mostly Cloudy  
Mostly Cloudy  
   Wind: West 17.3 mph<br />Gust to 17.3 mph
Wind: West 17.3 mph
Gust to 17.3 mph
Temperature: 53.6°F
Dew Point: 46.4°F
Humidity: 77%
Barometer: 29.97 inHg
Clouds: Mostly Cloudy
Visibility: 10 mi
Cloud details: Few Clouds 600 ft,
Mostly Cloudy 900 ft
KSFO 201342Z 27015G23KT 10SM FEW006 BKN009 12/08 A2997 RMK AO2 T01170078
KSJC - San Jose, CA
Updated: Apr 20 2021 5:53 am
Partly Cloudy  
Partly Cloudy  
   Wind: SSE 6.9 mph
Wind: SSE 6.9 mph
Temperature: 48.2°F
Wind Chill: 44.6°F
Dew Point: 44.6°F
Humidity: 87%
Barometer: 29.98 inHg
Clouds: Partly Cloudy
Visibility: 10 mi
Cloud details: Partly Cloudy 9000 ft
KSJC 201253Z 16006KT 10SM SCT090 09/07 A2998 RMK AO2 SLP150 T00940067
KOAK - Oakland, CA
Updated: Apr 20 2021 5:53 am
Mostly Cloudy  
Mostly Cloudy  
   Wind: WSW 15 mph
Wind: WSW 15 mph
Temperature: 51.8°F
Dew Point: 46.4°F
Humidity: 82%
Barometer: 29.97 inHg
Clouds: Mostly Cloudy
Visibility: 10 mi
Cloud details: Partly Cloudy 1100 ft,
Mostly Cloudy 1500 ft
KOAK 201253Z 25013KT 10SM SCT011 BKN015 11/08 A2997 RMK AO2 SLP149 T01060078
KMRY - Monterey, CA
Updated: Apr 20 2021 5:54 am
Overcast  
Overcast  
   Wind: SW 8.1 mph
Wind: SW 8.1 mph
Temperature: 53.6°F
Dew Point: 46.4°F
Humidity: 77%
Barometer: 30.03 inHg
Clouds: Overcast
Visibility: 10 mi
Cloud details: Overcast 1300 ft
KMRY 201254Z 23007KT 10SM OVC013 12/08 A3003 RMK AO2 SLP180 T01170078
KWYS - West Yellowstone, MT
Updated: Nov 19 2020 5:05 am
NOT Current
Mostly Cloudy  
Mostly Cloudy  
   Wind: SSW 13.8 mph<br />Gust to 13.8 mph
Wind: SSW 13.8 mph
Gust to 13.8 mph
Temperature: 30.2°F
Wind Chill: 19.4°F
Dew Point: 28.4°F
Humidity: 93%
Barometer: 29.95 inHg
Clouds: Mostly Cloudy
Visibility: 10 mi
Cloud details: Few Clouds 5500 ft,
Partly Cloudy 6500 ft,
Mostly Cloudy 7500 ft
KWYS 191305Z AUTO 21012G17KT 10SM FEW055 SCT065 BKN075 M01/M02 A2995 RMK AO2
KDCA - Washington, DC
Updated: Apr 20 2021 6:52 am
Partly Cloudy  
Partly Cloudy  
   Wind: South 10.4 mph
Wind: South 10.4 mph
Temperature: 59°F
Dew Point: 50°F
Humidity: 72%
Barometer: 30 inHg
Clouds: Partly Cloudy
Visibility: 10 mi
Cloud details: Partly Cloudy 25000 ft
KDCA 201352Z 17009KT 10SM SCT250 15/10 A3000 RMK AO2 SLP159 T01500100
KIAD - Washington Dulles, VA
Updated: Apr 20 2021 6:52 am
Partly Cloudy  
Partly Cloudy  
   Wind: SSW 9.2 mph
Wind: SSW 9.2 mph
Temperature: 64.4°F
Dew Point: 44.6°F
Humidity: 49%
Barometer: 29.99 inHg
Clouds: Partly Cloudy
Visibility: 10 mi
Cloud details: Partly Cloudy 25000 ft
KIAD 201352Z 21008KT 10SM SCT250 18/07 A2999 RMK AO2 SLP153 T01780072
KMIA - Miami Beach, FL
Updated: Apr 20 2021 5:53 am
Mostly Cloudy  
Mostly Cloudy  
   Wind: SSE 5.8 mph
Wind: SSE 5.8 mph
Temperature: 75.2°F
Dew Point: 71.6°F
Humidity: 89%
Barometer: 29.96 inHg
Clouds: Mostly Cloudy
Visibility: 10 mi
Cloud details: Few Clouds 5000 ft,
Partly Cloudy 12000 ft,
Mostly Cloudy 25000 ft
KMIA 201253Z 16005KT 10SM FEW050 SCT120 BKN250 24/22 A2996 RMK AO2 SLP145 T02440217

Script developed by  Saratoga-weather.org Adapted for the template by  Weerstation Leuven

You find our weather info also at:

Weather Underground

Citizen Weather Observer Program (CWOP)

Equipment we use:

Weather-station
Ambient WS-1400-IP

Weather-program
Meteobridge

Weather-server
TP-LINK TL-MR3020

Ambient WS-1400-IP

Meteobridge

TP-LINK TL-MR3020